Flight Track Log - Related Links

Times and Time Zones

All times are in EDT time to prevent confusion due to time zone crossing. See the N500VC flight status page for this flight to view local times or setup timezone preferences in your user account.


Time Position Orientation Groundspeed Altitude Reporting Facility
EDT Latitude Longitude Course Direction KTS MPH feet Rate Location/Type
Mon 09:28:18 AM 30.5081 -98.4142 312° West 249 287 4,500  Level Houston Center
Mon 09:29:20 AM 30.5581 -98.4783 312° West 261 300 7,700 2,952 Climbing Houston Center
Mon 09:30:22 AM 30.5986 -98.5606 300° West 287 330 10,600 2,661 Climbing Houston Center
Mon 09:31:24 AM 30.6281 -98.6492 291° West 293 337 13,200 2,226 Climbing Houston Center
Mon 09:32:26 AM 30.6661 -98.7431 295° West 313 360 15,200 2,129 Climbing Houston Center
Mon 09:33:28 AM 30.7056 -98.8400 295° West 328 377 17,600 2,419 Climbing Houston Center
Mon 09:34:30 AM 30.7489 -98.9500 295° West 318 366 20,200 2,226 Climbing Houston Center
Mon 09:35:32 AM 30.7839 -99.0422 294° West 311 358 22,200 1,839 Climbing Houston Center
Mon 09:36:34 AM 30.8200 -99.1369 294° West 316 364 24,000 1,659 Climbing Houston Center
Mon 09:37:35 AM 30.8536 -99.2261 294° West 319 367 25,600 1,561 Climbing Houston Center
Mon 09:38:37 AM 30.8914 -99.3219 295° West 325 374 27,200 1,645 Climbing Houston Center
Mon 09:39:39 AM 30.9356 -99.4386 294° West 328 377 29,000 1,355 Climbing Houston Center
Mon 09:40:41 AM 30.9708 -99.5339 293° West 325 374 30,000 484 Climbing Houston Center
Mon 09:41:43 AM 31.0114 -99.6394 294° West 361 415 30,000  Level Houston Center
Mon 09:42:45 AM 31.0531 -99.7508 294° West 373 429 30,000  Level Houston Center
Mon 09:43:46 AM 31.0975 -99.8706 293° West 402 463 30,000  Level Houston Center
Mon 09:44:48 AM 31.1414 -99.9847 294° West 393 452 30,000  Level Houston Center
Mon 09:45:50 AM 31.1936 -100.1264 293° West 400 460 30,000  Level Houston Center
Mon 09:46:52 AM 31.2378 -100.2444 294° West 396 456 30,000  Level Houston Center
Mon 09:47:54 AM 31.2817 -100.3617 294° West 398 458 30,000 -629 Level Houston Center
Mon 09:48:56 AM 31.3236 -100.4794 293° West 394 453 28,700 -1,500 Descending Houston Center
Mon 09:49:58 AM 31.3675 -100.5922 295° West 385 443 26,900 -1,600 Descending Houston Center
Mon 09:50:41 AM 31.3961 -100.6842 290° West 393 452 25,900 -1,282 Descending Fort Worth Center
Mon 09:51:41 AM 31.4411 -100.8003 294° West 393 452 24,700 -1,450 Descending Fort Worth Center
Mon 09:52:41 AM 31.4839 -100.9161 293° West 388 447 23,000 -1,700 Descending Fort Worth Center
Mon 09:53:41 AM 31.5267 -101.0300 294° West 388 447 21,300 -1,750 Descending Fort Worth Center
Mon 09:54:41 AM 31.5672 -101.1411 293° West 382 440 19,500 -1,750 Descending Fort Worth Center
Mon 09:55:41 AM 31.6058 -101.2478 293° West 371 427 17,800 -1,850 Descending Fort Worth Center
Mon 09:56:41 AM 31.6400 -101.3517 291° West 357 411 15,800 -1,800 Descending Fort Worth Center
Mon 09:57:41 AM 31.6786 -101.4558 294° West 351 404 14,200 -1,067 Descending Fort Worth Center
Mon 09:59:00 AM 31.7199 -101.5883 289° West  Level FlightAware Approximate
Mon 09:59:41 AM 31.7772 -101.6311 289° West 333 383 12,600  Level Fort Worth Center
Mon 10:01:00 AM 31.8003 -101.7688 281° West  Level FlightAware Approximate
Mon 10:01:41 AM 31.9122 -101.7719 281° West 327 376 9,300  Level Fort Worth Center
Mon 10:02:41 AM 31.9767 -101.8386 319° Northwest 313 360 7,900 -1,350 Descending Fort Worth Center
Mon 10:03:41 AM 32.0031 -101.9183 291° West 268 308 6,600 -1,250 Descending Fort Worth Center
Mon 10:04:41 AM 32.0150 -101.9947 280° West 251 289 5,400 -800 Descending Fort Worth Center
Mon 10:05:41 AM 32.0225 -102.0736 276° West 241 277 5,000 -333 Descending Fort Worth Center
Mon 10:07:00 AM 31.9439 -102.1850 230° Southwest  Level FlightAware Approximate
Mon 10:07:41 AM 32.0242 -102.1936 230° Southwest 193 222 4,400  Level Fort Worth Center
Mon 10:08:41 AM 31.9944 -102.2092 204° Southwest 132 152 3,800 -650 Descending Fort Worth Center
Mon 10:09:41 AM 31.9694 -102.2081 178° South 108 124 3,100 -700 Descending Fort Worth Center

Login

Don't have an account? Register now (free) for customized features, flight alerts, and more!